Aérodrome :
LOGIN :

S'inscrire | Disclaimer

   EN    FR    IT 

 










Légende :    VFR   VFR Marginal   IFR   IFR Intensif   IFR Très Intensif
Visi : 
Plafond : 
>= 8 km
>= 3000ft
5 à 8 km
1000 à 3000 ft
1500m à 5 km
500 à 1000 ft
800 à 1500m
200 à 500 ft
< 800m
< 200 ft
Symboles :   Orages  Brouillard  Fortes neiges  Fortes précipitations  Vent > 20 kt
SIGMETs :   Divers  Orages  Givrage  Turbulence  Onde Orograph.  Cendres Volcan.







- Altitude de l'aérodrome : 499 ft
- Code IATA : TLS
- Voir les cartes d'approche


LFBO - Toulouse / Blagnac

DERNIER METAR :
  • 210900Z AUTO 31007KT 220V340 9999 BKN023 BKN049 BKN056 22/15 Q1021 NOSIG

METARs EXPIRÉS :
  • 210830Z AUTO 29005KT 240V340 9999 FEW022 BKN047 22/16 Q1020 NOSIG
  • 210800Z AUTO 26005KT 240V320 9999 SCT022 BKN028 BKN044 20/16 Q1020 NOSIG
  • 210730Z AUTO 27008KT 9999 BKN022 BKN048 20/16 Q1020 NOSIG
  • 210700Z AUTO 27007KT 230V290 9999 BKN021 19/16 Q1019 TEMPO BKN008
  • 210630Z AUTO 26006KT 220V290 9999 FEW018 18/16 Q1019 TEMPO BKN008

TAF TAF LFBO
Valide du 21 à 06h jusqu'au 22 à 12h UTC


210500Z 2106/2212 28010KT CAVOK
PROB40
TEMPO 2106/2108 BKN008
TEMPO 2109/2111 BKN020
TEMPO 2118/2206 31005KT
PROB40
TEMPO 2118/2124 BKN030
BECMG 2200/2202 BKN030
BECMG 2202/2204 35005KT
BECMG 2209/2211 CAVOK
ATIS : +33 5 62 74 66 36
Pas de NOTAMs connus pour ce terrain.



MET'MAP, la Météo Aéronautique d'un coup d'oeil ! - Copyright ORBIFLY Décembre 2007 - Disclaimer

ORBIFLY MET'MAP TEAM :

Programmation & Développement : Alexandra Zaïnal
Conception & Développement : Baudouin d'Aumeries
Co-Programmation & Développement : Marc-Olivier Méhu
Soutien technique & logistique : Manuel Goepfert

Contact : metmap@orbifly.com




SOURCES & CREDITS :

   NOAA